createdAt,value
2018-11-25T00:00:13.631Z,3.10
2018-11-25T00:02:39.917Z,3.60
2018-11-25T00:05:06.176Z,2.90
2018-11-25T00:07:34.822Z,3.17
2018-11-25T00:09:59.522Z,3.20
2018-11-25T00:12:25.780Z,3.03
2018-11-25T00:14:52.879Z,3.10
2018-11-25T00:17:19.095Z,3.03
2018-11-25T00:19:45.357Z,3.20
2018-11-25T00:22:11.641Z,3.57
2018-11-25T00:24:37.873Z,4.27
2018-11-25T00:27:04.142Z,3.63
2018-11-25T00:29:30.366Z,3.70
2018-11-25T00:31:57.391Z,3.43
2018-11-25T00:34:23.636Z,3.00
2018-11-25T00:36:50.697Z,3.20
2018-11-25T00:39:16.947Z,3.17
2018-11-25T00:41:43.938Z,3.33
2018-11-25T00:44:10.187Z,3.40
2018-11-25T00:46:36.411Z,3.00
2018-11-25T00:49:02.831Z,2.97
2018-11-25T00:51:29.044Z,2.97
2018-11-25T00:53:55.284Z,2.60
2018-11-25T00:56:21.529Z,2.77
2018-11-25T00:58:47.746Z,2.90
2018-11-25T01:01:13.995Z,2.93
2018-11-25T01:03:40.264Z,2.97
2018-11-25T01:06:06.515Z,2.40
2018-11-25T01:08:32.822Z,2.90
2018-11-25T01:10:59.074Z,2.57
2018-11-25T01:13:25.336Z,2.57
2018-11-25T01:15:51.806Z,2.87
2018-11-25T01:18:18.055Z,2.50
2018-11-25T01:20:44.327Z,2.40
2018-11-25T01:23:10.609Z,3.07
2018-11-25T01:25:36.843Z,2.20
2018-11-25T01:28:03.118Z,2.90
2018-11-25T01:30:29.383Z,2.80
2018-11-25T01:32:55.660Z,2.50
2018-11-25T01:35:21.920Z,2.80
2018-11-25T01:37:48.895Z,2.80
2018-11-25T01:40:15.210Z,2.80
2018-11-25T01:42:41.507Z,2.80
2018-11-25T01:45:07.766Z,2.80
2018-11-25T01:47:34.057Z,2.97
2018-11-25T01:50:00.335Z,2.73
2018-11-25T01:52:26.603Z,3.07
2018-11-25T01:54:52.889Z,3.27
2018-11-25T01:57:19.144Z,3.17
2018-11-25T01:59:45.440Z,3.00
2018-11-25T02:02:11.679Z,3.10
2018-11-25T02:04:37.920Z,3.47
2018-11-25T02:07:04.242Z,3.63
2018-11-25T02:09:30.453Z,3.63
2018-11-25T02:11:56.725Z,3.00
2018-11-25T02:14:22.954Z,2.90
2018-11-25T02:16:49.195Z,3.00
2018-11-25T02:19:15.432Z,3.50
2018-11-25T02:21:42.704Z,2.90
2018-11-25T02:24:08.971Z,2.87
2018-11-25T02:26:35.214Z,3.07
2018-11-25T02:29:01.479Z,2.93
2018-11-25T02:31:28.451Z,3.00
2018-11-25T02:33:54.691Z,2.77
2018-11-25T02:36:21.867Z,2.80
2018-11-25T02:38:48.095Z,2.87
2018-11-25T02:41:14.363Z,2.80
2018-11-25T02:43:41.351Z,2.90
2018-11-25T02:46:08.343Z,2.80
2018-11-25T02:48:35.335Z,2.80
2018-11-25T02:51:01.579Z,2.80
2018-11-25T02:53:27.844Z,3.03
2018-11-25T02:55:54.822Z,4.10
2018-11-25T02:58:21.254Z,4.27
2018-11-25T03:00:47.595Z,4.63
2018-11-25T03:03:13.815Z,3.63
2018-11-25T03:05:40.111Z,3.47
2018-11-25T03:08:07.372Z,3.63
2018-11-25T03:10:33.611Z,4.77
2018-11-25T03:12:59.898Z,3.23
2018-11-25T03:15:26.277Z,3.53
2018-11-25T03:17:52.515Z,3.47
2018-11-25T03:20:18.874Z,4.20
2018-11-25T03:22:45.157Z,4.80
2018-11-25T03:25:11.408Z,4.80
2018-11-25T03:27:37.642Z,5.43
2018-11-25T03:30:04.219Z,5.37
2018-11-25T03:32:30.583Z,5.40
2018-11-25T03:34:56.826Z,5.43
2018-11-25T03:37:23.043Z,5.40
2018-11-25T03:39:49.293Z,5.40
2018-11-25T03:42:15.806Z,5.47
2018-11-25T03:44:42.267Z,5.43
2018-11-25T03:47:08.495Z,5.10
2018-11-25T03:49:35.000Z,4.97
2018-11-25T03:52:01.224Z,4.87
2018-11-25T03:54:27.456Z,4.53
2018-11-25T03:56:53.714Z,4.83
2018-11-25T03:59:19.982Z,5.27
2018-11-25T04:01:46.359Z,5.53
2018-11-25T04:04:12.660Z,5.20
2018-11-25T04:06:39.131Z,5.50
2018-11-25T04:09:05.450Z,5.57
2018-11-25T04:11:31.781Z,5.40
2018-11-25T04:13:58.056Z,5.43
2018-11-25T04:16:25.078Z,4.90
2018-11-25T04:18:52.136Z,4.40
2018-11-25T04:21:19.194Z,4.90
2018-11-25T04:23:45.540Z,4.60
2018-11-25T04:26:11.814Z,4.57
2018-11-25T04:28:38.262Z,4.63
2018-11-25T04:31:04.535Z,4.50
2018-11-25T04:33:30.770Z,4.00
2018-11-25T04:35:57.019Z,4.07
2018-11-25T04:38:23.261Z,4.20
2018-11-25T04:40:49.566Z,4.07
2018-11-25T04:43:15.796Z,4.50
2018-11-25T04:45:42.012Z,4.27
2018-11-25T04:48:08.229Z,4.40
2018-11-25T04:50:34.755Z,4.10
2018-11-25T04:53:01.740Z,4.30
2018-11-25T04:55:27.959Z,4.23
2018-11-25T04:57:54.194Z,4.00
2018-11-25T05:00:20.486Z,4.00
2018-11-25T05:02:47.474Z,5.50
2018-11-25T05:05:13.729Z,5.17
2018-11-25T05:07:40.070Z,4.67
2018-11-25T05:10:07.096Z,3.57
2018-11-25T05:12:33.438Z,4.63
2018-11-25T05:15:00.071Z,4.80
2018-11-25T05:17:26.627Z,5.40
2018-11-25T05:19:53.599Z,5.57
2018-11-25T05:22:19.898Z,4.00
2018-11-25T05:24:46.379Z,3.93
2018-11-25T05:27:12.697Z,4.03
2018-11-25T05:29:38.988Z,3.83
2018-11-25T05:32:06.549Z,3.73
2018-11-25T05:34:32.799Z,3.70
2018-11-25T05:36:59.055Z,3.70
2018-11-25T05:39:25.308Z,3.73
2018-11-25T05:41:51.539Z,3.90
2018-11-25T05:44:17.835Z,3.90
2018-11-25T05:46:44.087Z,3.57
2018-11-25T05:49:10.369Z,3.57
2018-11-25T05:51:36.648Z,3.57
2018-11-25T05:54:02.960Z,3.30
2018-11-25T05:56:29.188Z,3.87
2018-11-25T05:58:55.569Z,4.07
2018-11-25T06:01:22.510Z,3.73
2018-11-25T06:03:48.813Z,3.77
2018-11-25T06:06:15.085Z,4.00
2018-11-25T06:08:41.351Z,3.73
2018-11-25T06:11:07.595Z,4.80
2018-11-25T06:13:34.563Z,4.67
2018-11-25T06:16:01.020Z,4.27
2018-11-25T06:18:27.335Z,3.93
2018-11-25T06:20:53.904Z,4.10
2018-11-25T06:23:20.156Z,4.67
2018-11-25T06:25:46.542Z,3.60
2018-11-25T06:28:12.774Z,3.93
2018-11-25T06:30:39.033Z,4.83
2018-11-25T06:33:05.353Z,4.60
2018-11-25T06:35:31.735Z,4.80
2018-11-25T06:37:58.379Z,2.93
2018-11-25T06:40:24.650Z,3.07
2018-11-25T06:42:51.719Z,3.50
2018-11-25T06:45:18.012Z,2.53
2018-11-25T06:47:44.329Z,2.30
2018-11-25T06:50:12.426Z,2.17
2018-11-25T06:52:37.878Z,1.70
2018-11-25T06:55:04.249Z,2.20
2018-11-25T06:57:30.696Z,2.60
2018-11-25T06:59:57.238Z,2.97
2018-11-25T07:02:24.217Z,3.50
2018-11-25T07:04:51.191Z,3.10
2018-11-25T07:07:17.447Z,3.90
2018-11-25T07:09:44.021Z,4.60
2018-11-25T07:12:10.270Z,4.80
2018-11-25T07:14:36.503Z,5.23
2018-11-25T07:17:02.765Z,6.10
2018-11-25T07:19:28.985Z,8.53
2018-11-25T07:21:55.264Z,11.50
2018-11-25T07:24:22.232Z,10.13
2018-11-25T07:26:48.493Z,13.13
2018-11-25T07:29:14.734Z,12.47
2018-11-25T07:31:41.034Z,16.27
2018-11-25T07:34:07.363Z,17.03
2018-11-25T07:36:33.654Z,15.87
2018-11-25T07:39:00.619Z,15.47
2018-11-25T07:41:27.127Z,16.30
2018-11-25T07:43:53.355Z,16.57
2018-11-25T07:46:19.615Z,15.57
2018-11-25T07:48:45.860Z,16.10
2018-11-25T07:51:12.093Z,16.17
2018-11-25T07:53:38.320Z,15.30
2018-11-25T07:56:04.588Z,15.77
2018-11-25T07:58:31.852Z,15.57
2018-11-25T08:00:58.809Z,13.80
2018-11-25T08:03:25.828Z,14.13
2018-11-25T08:05:52.825Z,15.40
2018-11-25T08:08:19.104Z,14.07
2018-11-25T08:10:45.356Z,14.00
2018-11-25T08:13:11.895Z,13.97
2018-11-25T08:15:38.159Z,15.60
2018-11-25T08:18:04.408Z,15.90
2018-11-25T08:20:30.777Z,15.30
2018-11-25T08:22:57.043Z,15.20
2018-11-25T08:25:24.059Z,15.90
2018-11-25T08:27:51.126Z,14.83
2018-11-25T08:30:17.403Z,15.17
2018-11-25T08:32:43.652Z,15.83
2018-11-25T08:35:09.957Z,15.20
2018-11-25T08:37:36.229Z,15.70
2018-11-25T08:40:02.517Z,16.07
2018-11-25T08:42:29.501Z,14.57
2018-11-25T08:44:55.739Z,14.57
2018-11-25T08:47:21.987Z,14.83
2018-11-25T08:49:48.232Z,13.27
2018-11-25T08:52:14.778Z,14.83
2018-11-25T08:54:41.003Z,14.17
2018-11-25T08:57:07.231Z,14.10
2018-11-25T08:59:33.528Z,14.40
2018-11-25T09:01:59.895Z,13.70
2018-11-25T09:04:26.322Z,14.63
2018-11-25T09:06:52.658Z,14.17
2018-11-25T09:09:18.974Z,14.43
2018-11-25T09:11:45.215Z,15.10
2018-11-25T09:14:11.569Z,14.00
2018-11-25T09:16:37.837Z,14.53
2018-11-25T09:19:04.939Z,14.77
2018-11-25T09:21:31.598Z,14.27
2018-11-25T09:23:57.860Z,15.37
2018-11-25T09:26:24.908Z,16.90
2018-11-25T09:28:52.246Z,14.50
2018-11-25T09:31:17.470Z,15.63
2018-11-25T09:33:43.709Z,14.60
2018-11-25T09:36:09.969Z,14.83
2018-11-25T09:38:36.322Z,15.23
2018-11-25T09:41:04.028Z,14.80
2018-11-25T09:43:32.094Z,14.37
2018-11-25T09:45:58.527Z,13.50
2018-11-25T09:48:25.616Z,14.00
2018-11-25T09:50:52.732Z,14.80
2018-11-25T09:53:19.145Z,14.20
2018-11-25T09:55:45.673Z,14.30
2018-11-25T09:58:13.157Z,14.00
2018-11-25T10:00:40.267Z,14.23
2018-11-25T10:03:07.350Z,13.63
2018-11-25T10:05:33.704Z,13.93
2018-11-25T10:08:00.940Z,14.37
2018-11-25T10:10:28.008Z,13.63
2018-11-25T10:12:54.280Z,14.33
2018-11-25T10:15:20.648Z,13.27
2018-11-25T10:17:47.495Z,15.40
2018-11-25T10:20:14.598Z,13.40
2018-11-25T10:22:40.915Z,13.67
2018-11-25T10:25:07.566Z,13.63
2018-11-25T10:27:33.880Z,13.77
2018-11-25T10:30:01.141Z,12.60
2018-11-25T10:32:27.978Z,13.20
2018-11-25T10:34:54.621Z,12.13
2018-11-25T10:37:21.005Z,12.60
2018-11-25T10:39:49.124Z,13.37
2018-11-25T10:42:16.090Z,12.67
2018-11-25T10:44:42.762Z,12.60
2018-11-25T10:47:09.112Z,13.30
2018-11-25T10:49:35.473Z,12.77
2018-11-25T10:52:02.201Z,13.23
2018-11-25T10:54:29.440Z,12.00
2018-11-25T10:56:56.594Z,11.77
2018-11-25T10:59:22.893Z,12.03
2018-11-25T11:01:49.264Z,10.20
2018-11-25T11:04:15.747Z,12.73
2018-11-25T11:06:42.240Z,12.23
2018-11-25T11:09:09.963Z,11.60
2018-11-25T11:11:37.745Z,11.90
2018-11-25T11:14:04.079Z,11.90
2018-11-25T11:16:30.410Z,11.97
2018-11-25T11:18:56.807Z,11.80
2018-11-25T11:21:23.293Z,10.73
2018-11-25T11:23:49.931Z,11.03
2018-11-25T11:26:16.617Z,10.63
2018-11-25T11:28:42.915Z,10.50
2018-11-25T11:31:13.349Z,11.60
2018-11-25T11:33:36.108Z,10.60
2018-11-25T11:36:02.947Z,10.13
2018-11-25T11:38:29.577Z,10.73
2018-11-25T11:40:56.871Z,10.40
2018-11-25T11:43:24.208Z,10.63
2018-11-25T11:45:51.485Z,10.27
2018-11-25T11:48:17.824Z,9.50
2018-11-25T11:50:44.301Z,10.43
2018-11-25T11:53:11.962Z,11.30
2018-11-25T11:55:38.384Z,9.73
2018-11-25T11:58:04.715Z,9.00
2018-11-25T12:00:31.959Z,9.20
2018-11-25T12:02:59.373Z,9.77
2018-11-25T12:05:25.918Z,9.67
2018-11-25T12:07:52.319Z,10.03
2018-11-25T12:10:18.742Z,9.30
2018-11-25T12:12:45.191Z,9.80
2018-11-25T12:15:11.640Z,9.50
2018-11-25T12:17:37.975Z,9.63
2018-11-25T12:20:04.580Z,9.10
2018-11-25T12:22:30.939Z,10.20
2018-11-25T12:24:58.028Z,9.53
2018-11-25T12:27:24.423Z,9.33
2018-11-25T12:29:51.541Z,9.50
2018-11-25T12:32:17.900Z,9.17
2018-11-25T12:34:44.380Z,9.07
2018-11-25T12:37:10.796Z,8.43
2018-11-25T12:39:37.479Z,9.27
2018-11-25T12:44:37.392Z,8.33
2018-11-25T12:47:03.731Z,8.77
2018-11-25T12:49:30.071Z,8.33
2018-11-25T12:51:56.638Z,8.50
2018-11-25T12:54:23.724Z,7.90
2018-11-25T12:56:51.863Z,8.33
2018-11-25T12:59:16.584Z,8.43
2018-11-25T13:01:42.903Z,8.53
2018-11-25T13:04:09.943Z,8.13
2018-11-25T13:06:36.703Z,8.23
2018-11-25T13:09:03.084Z,8.20
2018-11-25T13:11:29.431Z,8.40
2018-11-25T13:13:55.891Z,8.50
2018-11-25T13:16:22.620Z,8.37
2018-11-25T13:18:48.991Z,8.63
2018-11-25T13:21:15.462Z,7.70
2018-11-25T13:23:43.271Z,7.83
2018-11-25T13:26:09.276Z,7.60
2018-11-25T13:28:35.639Z,7.10
2018-11-25T13:31:02.364Z,6.77
2018-11-25T13:33:28.676Z,7.83
2018-11-25T13:35:55.042Z,8.00
2018-11-25T13:38:21.545Z,7.53
2018-11-25T13:40:49.485Z,7.47
2018-11-25T13:43:14.684Z,7.03
2018-11-25T13:45:41.092Z,7.17
2018-11-25T13:48:07.771Z,6.80
2018-11-25T13:50:34.412Z,7.30
2018-11-25T13:53:00.852Z,6.83
2018-11-25T13:55:27.299Z,7.50
2018-11-25T13:57:53.712Z,7.27
2018-11-25T14:00:21.096Z,7.03
2018-11-25T14:02:47.982Z,6.57
2018-11-25T14:05:14.412Z,7.43
2018-11-25T14:07:40.956Z,6.53
2018-11-25T14:10:07.695Z,7.03
2018-11-25T14:12:34.091Z,6.47
2018-11-25T14:15:00.537Z,6.17
2018-11-25T14:17:27.003Z,5.70
2018-11-25T14:19:53.555Z,6.73
2018-11-25T14:22:20.932Z,6.30
2018-11-25T14:24:48.388Z,5.80
2018-11-25T14:27:16.060Z,6.07
2018-11-25T14:29:42.572Z,5.77
2018-11-25T14:32:08.966Z,5.90
2018-11-25T14:34:35.351Z,6.27
2018-11-25T14:37:01.928Z,6.30
2018-11-25T14:39:28.293Z,5.77
2018-11-25T14:41:54.582Z,6.07
2018-11-25T14:44:20.970Z,5.90
2018-11-25T14:46:47.297Z,5.57
2018-11-25T14:49:13.695Z,9.00
2018-11-25T14:51:40.865Z,7.90
2018-11-25T14:54:07.265Z,6.50
2018-11-25T14:56:33.573Z,6.10
2018-11-25T14:58:59.853Z,6.17
2018-11-25T15:01:26.265Z,5.73
2018-11-25T15:03:52.614Z,6.00
2018-11-25T15:06:18.920Z,6.40
2018-11-25T15:08:45.256Z,6.87
2018-11-25T15:11:12.275Z,6.70
2018-11-25T15:13:38.589Z,6.87
2018-11-25T15:16:05.736Z,6.33
2018-11-25T15:18:32.078Z,7.03
2018-11-25T15:20:58.488Z,6.87
2018-11-25T15:23:24.955Z,7.17
2018-11-25T15:25:52.316Z,6.70
2018-11-25T15:28:19.580Z,7.80
2018-11-25T15:30:46.034Z,6.83
2018-11-25T15:33:12.413Z,7.03
2018-11-25T15:35:38.973Z,9.33
2018-11-25T15:38:05.472Z,9.40
2018-11-25T15:40:32.808Z,10.80
2018-11-25T15:42:59.377Z,11.23
2018-11-25T15:45:25.828Z,12.50
2018-11-25T15:47:53.110Z,13.67
2018-11-25T15:50:20.505Z,13.60
2018-11-25T15:52:47.400Z,14.07
2018-11-25T15:55:13.747Z,14.37
2018-11-25T15:57:40.095Z,15.07
2018-11-25T16:00:06.673Z,14.77
2018-11-25T16:02:33.797Z,14.90
2018-11-25T16:05:00.132Z,14.90
2018-11-25T16:07:26.440Z,16.40
2018-11-25T16:09:52.769Z,16.50
2018-11-25T16:12:19.209Z,16.77
2018-11-25T16:14:45.631Z,16.77
2018-11-25T16:17:12.158Z,16.80
2018-11-25T16:19:38.765Z,16.50
2018-11-25T16:22:05.425Z,14.87
2018-11-25T16:24:31.694Z,15.00
2018-11-25T16:26:58.090Z,13.90
2018-11-25T16:29:24.664Z,12.60
2018-11-25T16:31:51.887Z,11.03
2018-11-25T16:34:18.281Z,10.43
2018-11-25T16:36:44.892Z,10.33
2018-11-25T16:39:11.094Z,11.57
2018-11-25T16:41:38.231Z,11.37
2018-11-25T16:44:04.583Z,11.63
2018-11-25T16:46:31.184Z,11.30
2018-11-25T16:48:57.490Z,10.70
2018-11-25T16:51:24.588Z,10.83
2018-11-25T16:53:50.989Z,10.83
2018-11-25T16:56:17.659Z,10.83
2018-11-25T16:58:44.119Z,10.40
2018-11-25T17:01:11.143Z,11.47
2018-11-25T17:03:38.242Z,11.53
2018-11-25T17:06:04.671Z,11.33
2018-11-25T17:08:31.154Z,10.60
2018-11-25T17:10:57.506Z,10.53
2018-11-25T17:13:23.867Z,11.03
2018-11-25T17:15:50.576Z,11.97
2018-11-25T17:18:16.978Z,11.13
2018-11-25T17:20:43.539Z,11.40
2018-11-25T17:23:09.856Z,11.83
2018-11-25T17:25:36.506Z,11.67
2018-11-25T17:28:03.247Z,11.77
2018-11-25T17:30:29.662Z,12.07
2018-11-25T17:32:56.013Z,10.90
2018-11-25T17:35:23.075Z,11.27
2018-11-25T17:37:49.426Z,11.47
2018-11-25T17:40:15.812Z,11.87
2018-11-25T17:42:42.828Z,11.53
2018-11-25T17:45:10.050Z,12.63
2018-11-25T17:47:36.459Z,11.97
2018-11-25T17:50:02.786Z,12.40
2018-11-25T17:52:29.307Z,11.67
2018-11-25T17:57:29.587Z,11.33
2018-11-25T17:59:56.135Z,11.37
2018-11-25T18:02:22.528Z,12.43
2018-11-25T18:04:48.863Z,12.07
2018-11-25T18:07:15.164Z,11.27
2018-11-25T18:09:41.467Z,11.90
2018-11-25T18:12:07.797Z,12.63
2018-11-25T18:14:34.918Z,12.70
2018-11-25T18:17:01.539Z,11.67
2018-11-25T18:19:27.824Z,12.73
2018-11-25T18:21:54.256Z,13.00
2018-11-25T18:24:20.789Z,12.43
2018-11-25T18:26:47.127Z,12.77
2018-11-25T18:29:13.512Z,12.43
2018-11-25T18:31:39.882Z,11.70
2018-11-25T18:34:06.810Z,12.73
2018-11-25T18:36:33.736Z,11.90
2018-11-25T18:39:00.100Z,12.33
2018-11-25T18:41:26.481Z,13.27
2018-11-25T18:43:52.809Z,12.90
2018-11-25T18:46:19.144Z,13.33
2018-11-25T18:48:45.449Z,13.13
2018-11-25T18:51:11.830Z,13.43
2018-11-25T18:53:38.296Z,13.13
2018-11-25T18:56:04.591Z,13.60
2018-11-25T18:58:31.263Z,13.27
2018-11-25T19:00:58.357Z,13.37
2018-11-25T19:03:24.946Z,13.13
2018-11-25T19:05:52.316Z,13.00
2018-11-25T19:08:18.915Z,14.07
2018-11-25T19:10:46.242Z,13.70
2018-11-25T19:13:13.168Z,13.37
2018-11-25T19:15:39.703Z,18.20
2018-11-25T19:18:06.856Z,13.33
2018-11-25T19:20:33.301Z,13.90
2018-11-25T19:22:59.656Z,12.73
2018-11-25T19:25:26.128Z,14.63
2018-11-25T19:27:52.501Z,13.73
2018-11-25T19:30:26.071Z,13.70
2018-11-25T19:32:45.278Z,14.43
2018-11-25T19:35:11.680Z,14.13
2018-11-25T19:37:38.816Z,16.33
2018-11-25T19:40:05.262Z,13.77
2018-11-25T19:42:32.550Z,14.80
2018-11-25T19:44:58.895Z,14.57
2018-11-25T19:47:25.958Z,14.00
2018-11-25T19:49:53.115Z,12.63
2018-11-25T19:52:18.660Z,12.50
2018-11-25T19:54:54.207Z,15.93
2018-11-25T19:57:20.687Z,14.00
2018-11-25T19:59:47.241Z,14.07
2018-11-25T20:02:14.241Z,13.67
2018-11-25T20:04:40.896Z,12.83
2018-11-25T20:07:07.294Z,12.87
2018-11-25T20:09:34.387Z,14.07
2018-11-25T20:12:00.788Z,15.67
2018-11-25T20:14:27.890Z,15.33
2018-11-25T20:16:54.434Z,13.23
2018-11-25T20:19:20.835Z,13.80
2018-11-25T20:21:47.921Z,14.07
2018-11-25T20:24:20.439Z,13.43
2018-11-25T20:26:53.590Z,13.70
2018-11-25T20:29:25.858Z,13.47
2018-11-25T20:31:58.571Z,14.40
2018-11-25T20:34:31.072Z,14.13
2018-11-25T20:37:03.447Z,14.23
2018-11-25T20:39:35.785Z,15.20
2018-11-25T20:42:08.398Z,14.33
2018-11-25T20:44:34.642Z,14.00
2018-11-25T20:47:04.918Z,14.87
2018-11-25T20:49:37.310Z,14.87
2018-11-25T20:52:09.751Z,14.87
2018-11-25T20:54:42.125Z,14.37
2018-11-25T20:57:14.433Z,13.57
2018-11-25T20:59:46.767Z,15.10
2018-11-25T21:02:20.474Z,15.80
2018-11-25T21:04:52.463Z,14.20
2018-11-25T21:07:24.832Z,14.70
2018-11-25T21:09:57.939Z,14.10
2018-11-25T21:12:31.187Z,13.77
2018-11-25T21:15:03.689Z,14.17
2018-11-25T21:17:36.854Z,13.73
2018-11-25T21:20:10.012Z,13.33
2018-11-25T21:22:42.501Z,12.47
2018-11-25T21:25:14.763Z,13.67
2018-11-25T21:27:47.101Z,13.37
2018-11-25T21:30:19.726Z,14.90
2018-11-25T21:32:52.266Z,14.97
2018-11-25T21:35:25.055Z,18.63
2018-11-25T21:37:58.255Z,18.17
2018-11-25T21:40:31.560Z,15.47
2018-11-25T21:43:03.980Z,12.33
2018-11-25T21:45:30.225Z,12.60
2018-11-25T21:47:57.951Z,13.27
2018-11-25T21:50:22.779Z,15.23
2018-11-25T21:52:49.024Z,18.30
2018-11-25T21:55:15.299Z,15.53
2018-11-25T21:57:42.295Z,14.90
2018-11-25T22:00:08.569Z,19.37
2018-11-25T22:02:34.836Z,14.07
2018-11-25T22:05:01.104Z,14.43
2018-11-25T22:07:27.351Z,14.47
2018-11-25T22:09:53.833Z,14.23
2018-11-25T22:12:20.077Z,13.67
2018-11-25T22:14:46.359Z,13.27
2018-11-25T22:17:13.376Z,13.20
2018-11-25T22:19:39.632Z,13.27
2018-11-25T22:22:06.090Z,12.40
2018-11-25T22:24:32.670Z,13.30
2018-11-25T22:26:58.891Z,13.07
2018-11-25T22:29:25.886Z,14.37
2018-11-25T22:31:52.163Z,12.90
2018-11-25T22:34:18.474Z,14.37
2018-11-25T22:36:44.738Z,13.37
2018-11-25T22:39:11.011Z,13.40
2018-11-25T22:41:37.289Z,14.37
2018-11-25T22:44:03.599Z,13.00
2018-11-25T22:46:29.855Z,13.93
2018-11-25T22:48:56.098Z,14.03
2018-11-25T22:51:23.095Z,13.17
2018-11-25T22:53:49.361Z,13.67
2018-11-25T22:56:16.626Z,12.47
2018-11-25T22:58:43.606Z,13.10
2018-11-25T23:01:10.635Z,12.97
2018-11-25T23:03:36.886Z,13.50
2018-11-25T23:06:23.991Z,13.00
2018-11-25T23:08:50.267Z,13.60
2018-11-25T23:11:16.538Z,13.87
2018-11-25T23:13:43.352Z,13.93
2018-11-25T23:16:10.348Z,13.40
2018-11-25T23:18:36.602Z,12.83
2018-11-25T23:21:02.865Z,13.87
2018-11-25T23:23:29.158Z,13.40
2018-11-25T23:25:55.503Z,13.73
2018-11-25T23:28:22.510Z,14.03
2018-11-25T23:30:48.766Z,13.67
2018-11-25T23:33:15.494Z,13.30
2018-11-25T23:35:41.719Z,13.27
2018-11-25T23:38:08.003Z,14.23
2018-11-25T23:40:34.259Z,13.73
2018-11-25T23:43:00.551Z,13.57
2018-11-25T23:45:26.788Z,13.23
2018-11-25T23:47:53.048Z,13.77
2018-11-25T23:50:19.287Z,13.80
2018-11-25T23:52:45.537Z,13.20
2018-11-25T23:55:11.780Z,14.00
2018-11-25T23:57:38.106Z,13.93
